sensor_id;sensor_type;location;lat;lon;timestamp;P1;durP1;ratioP1;P2;durP2;ratioP2
28523;SDS011;15734;50.904;6.922;2023-06-10T00:00:00;15.13;;;10.90;;
28523;SDS011;15734;50.904;6.922;2023-06-10T00:02:26;16.33;;;11.82;;
28523;SDS011;15734;50.904;6.922;2023-06-10T00:04:52;14.75;;;10.73;;
28523;SDS011;15734;50.904;6.922;2023-06-10T00:07:17;17.58;;;11.93;;
28523;SDS011;15734;50.904;6.922;2023-06-10T00:09:43;15.63;;;10.65;;
28523;SDS011;15734;50.904;6.922;2023-06-10T00:12:09;18.27;;;12.80;;
28523;SDS011;15734;50.904;6.922;2023-06-10T00:14:38;16.20;;;10.98;;
28523;SDS011;15734;50.904;6.922;2023-06-10T00:17:05;18.90;;;12.10;;
28523;SDS011;15734;50.904;6.922;2023-06-10T00:19:35;17.13;;;11.13;;
28523;SDS011;15734;50.904;6.922;2023-06-10T00:22:01;14.88;;;11.52;;
28523;SDS011;15734;50.904;6.922;2023-06-10T00:24:28;19.63;;;12.23;;
28523;SDS011;15734;50.904;6.922;2023-06-10T00:26:53;18.98;;;11.70;;
28523;SDS011;15734;50.904;6.922;2023-06-10T00:29:19;16.77;;;11.80;;
28523;SDS011;15734;50.904;6.922;2023-06-10T00:31:44;16.05;;;11.63;;
28523;SDS011;15734;50.904;6.922;2023-06-10T00:34:11;15.60;;;11.75;;
28523;SDS011;15734;50.904;6.922;2023-06-10T00:36:36;20.02;;;11.82;;
28523;SDS011;15734;50.904;6.922;2023-06-10T00:39:02;16.17;;;12.05;;
28523;SDS011;15734;50.904;6.922;2023-06-10T00:41:29;17.45;;;11.65;;
28523;SDS011;15734;50.904;6.922;2023-06-10T00:43:55;17.05;;;12.35;;
28523;SDS011;15734;50.904;6.922;2023-06-10T00:46:21;16.63;;;11.65;;
28523;SDS011;15734;50.904;6.922;2023-06-10T00:48:48;16.20;;;12.38;;
28523;SDS011;15734;50.904;6.922;2023-06-10T00:51:15;16.98;;;11.40;;
28523;SDS011;15734;50.904;6.922;2023-06-10T00:53:44;16.05;;;12.40;;
28523;SDS011;15734;50.904;6.922;2023-06-10T00:56:10;14.05;;;11.60;;
28523;SDS011;15734;50.904;6.922;2023-06-10T00:58:36;23.15;;;12.55;;
28523;SDS011;15734;50.904;6.922;2023-06-10T01:01:02;22.50;;;12.27;;
28523;SDS011;15734;50.904;6.922;2023-06-10T01:03:29;16.65;;;12.00;;
28523;SDS011;15734;50.904;6.922;2023-06-10T01:06:01;15.93;;;12.38;;
28523;SDS011;15734;50.904;6.922;2023-06-10T01:11:47;21.63;;;12.45;;
28523;SDS011;15734;50.904;6.922;2023-06-10T01:14:26;19.42;;;12.60;;
28523;SDS011;15734;50.904;6.922;2023-06-10T01:16:53;19.23;;;11.80;;
28523;SDS011;15734;50.904;6.922;2023-06-10T01:19:20;16.05;;;12.05;;
28523;SDS011;15734;50.904;6.922;2023-06-10T01:21:49;21.20;;;11.95;;
28523;SDS011;15734;50.904;6.922;2023-06-10T01:24:16;17.77;;;12.38;;
28523;SDS011;15734;50.904;6.922;2023-06-10T01:26:43;20.30;;;11.95;;
28523;SDS011;15734;50.904;6.922;2023-06-10T01:32:12;18.55;;;13.65;;
28523;SDS011;15734;50.904;6.922;2023-06-10T01:34:43;17.52;;;12.80;;
28523;SDS011;15734;50.904;6.922;2023-06-10T01:37:11;19.02;;;12.48;;
28523;SDS011;15734;50.904;6.922;2023-06-10T01:39:40;20.67;;;12.32;;
28523;SDS011;15734;50.904;6.922;2023-06-10T01:42:07;17.23;;;13.15;;
28523;SDS011;15734;50.904;6.922;2023-06-10T01:44:35;17.05;;;12.30;;
28523;SDS011;15734;50.904;6.922;2023-06-10T01:47:00;20.13;;;12.95;;
28523;SDS011;15734;50.904;6.922;2023-06-10T01:49:26;19.42;;;13.32;;
28523;SDS011;15734;50.904;6.922;2023-06-10T01:51:53;23.27;;;13.00;;
28523;SDS011;15734;50.904;6.922;2023-06-10T01:54:19;20.08;;;13.85;;
28523;SDS011;15734;50.904;6.922;2023-06-10T01:56:44;18.75;;;12.57;;
28523;SDS011;15734;50.904;6.922;2023-06-10T01:59:10;20.02;;;14.20;;
28523;SDS011;15734;50.904;6.922;2023-06-10T02:01:35;15.82;;;12.50;;
28523;SDS011;15734;50.904;6.922;2023-06-10T02:04:01;22.63;;;13.07;;
28523;SDS011;15734;50.904;6.922;2023-06-10T02:06:26;21.33;;;13.32;;
28523;SDS011;15734;50.904;6.922;2023-06-10T02:08:52;22.35;;;14.07;;
28523;SDS011;15734;50.904;6.922;2023-06-10T02:11:17;18.45;;;13.23;;
28523;SDS011;15734;50.904;6.922;2023-06-10T02:13:43;17.33;;;12.75;;
28523;SDS011;15734;50.904;6.922;2023-06-10T02:16:08;23.00;;;14.02;;
28523;SDS011;15734;50.904;6.922;2023-06-10T02:18:37;19.13;;;13.05;;
28523;SDS011;15734;50.904;6.922;2023-06-10T02:21:05;15.93;;;12.77;;
28523;SDS011;15734;50.904;6.922;2023-06-10T02:23:31;17.88;;;13.23;;
28523;SDS011;15734;50.904;6.922;2023-06-10T02:25:57;18.75;;;12.98;;
28523;SDS011;15734;50.904;6.922;2023-06-10T02:28:22;25.55;;;13.48;;
28523;SDS011;15734;50.904;6.922;2023-06-10T02:30:48;23.38;;;12.90;;
28523;SDS011;15734;50.904;6.922;2023-06-10T02:33:14;18.17;;;13.30;;
28523;SDS011;15734;50.904;6.922;2023-06-10T02:35:40;19.38;;;13.57;;
28523;SDS011;15734;50.904;6.922;2023-06-10T02:38:06;23.95;;;14.52;;
28523;SDS011;15734;50.904;6.922;2023-06-10T02:40:31;20.30;;;13.00;;
28523;SDS011;15734;50.904;6.922;2023-06-10T02:42:57;20.45;;;13.45;;
28523;SDS011;15734;50.904;6.922;2023-06-10T02:45:23;18.52;;;13.43;;
28523;SDS011;15734;50.904;6.922;2023-06-10T02:47:49;20.40;;;13.93;;
28523;SDS011;15734;50.904;6.922;2023-06-10T02:50:15;20.38;;;14.40;;
28523;SDS011;15734;50.904;6.922;2023-06-10T02:52:41;24.02;;;13.85;;
28523;SDS011;15734;50.904;6.922;2023-06-10T02:55:06;21.48;;;13.07;;
28523;SDS011;15734;50.904;6.922;2023-06-10T02:57:32;16.48;;;13.02;;
28523;SDS011;15734;50.904;6.922;2023-06-10T02:59:57;22.98;;;14.48;;
28523;SDS011;15734;50.904;6.922;2023-06-10T03:02:23;17.88;;;13.35;;
28523;SDS011;15734;50.904;6.922;2023-06-10T03:04:53;18.63;;;12.70;;
28523;SDS011;15734;50.904;6.922;2023-06-10T03:07:22;18.60;;;13.85;;
28523;SDS011;15734;50.904;6.922;2023-06-10T03:09:48;21.40;;;14.82;;
28523;SDS011;15734;50.904;6.922;2023-06-10T03:12:14;17.85;;;14.30;;
28523;SDS011;15734;50.904;6.922;2023-06-10T03:14:40;21.23;;;13.80;;
28523;SDS011;15734;50.904;6.922;2023-06-10T03:17:06;23.73;;;14.15;;
28523;SDS011;15734;50.904;6.922;2023-06-10T03:19:33;18.95;;;13.45;;
28523;SDS011;15734;50.904;6.922;2023-06-10T03:22:09;19.15;;;14.05;;
28523;SDS011;15734;50.904;6.922;2023-06-10T03:24:39;23.70;;;14.52;;
28523;SDS011;15734;50.904;6.922;2023-06-10T03:27:06;20.30;;;14.73;;
28523;SDS011;15734;50.904;6.922;2023-06-10T03:29:32;20.50;;;13.55;;
28523;SDS011;15734;50.904;6.922;2023-06-10T03:31:58;23.83;;;12.98;;
28523;SDS011;15734;50.904;6.922;2023-06-10T03:34:23;22.65;;;15.18;;
28523;SDS011;15734;50.904;6.922;2023-06-10T03:36:49;21.67;;;13.88;;
28523;SDS011;15734;50.904;6.922;2023-06-10T03:39:15;22.08;;;14.40;;
28523;SDS011;15734;50.904;6.922;2023-06-10T03:41:41;19.42;;;13.43;;
28523;SDS011;15734;50.904;6.922;2023-06-10T03:44:06;17.77;;;13.52;;
28523;SDS011;15734;50.904;6.922;2023-06-10T03:46:32;21.75;;;14.32;;
28523;SDS011;15734;50.904;6.922;2023-06-10T03:48:57;28.27;;;15.38;;
28523;SDS011;15734;50.904;6.922;2023-06-10T03:51:25;18.77;;;14.00;;
28523;SDS011;15734;50.904;6.922;2023-06-10T03:53:51;21.00;;;14.32;;
28523;SDS011;15734;50.904;6.922;2023-06-10T03:56:17;20.83;;;14.82;;
28523;SDS011;15734;50.904;6.922;2023-06-10T03:58:42;20.35;;;14.30;;
28523;SDS011;15734;50.904;6.922;2023-06-10T04:01:08;20.35;;;14.93;;
28523;SDS011;15734;50.904;6.922;2023-06-10T04:03:35;23.85;;;14.95;;
28523;SDS011;15734;50.904;6.922;2023-06-10T04:06:01;22.08;;;14.63;;
28523;SDS011;15734;50.904;6.922;2023-06-10T04:08:27;25.85;;;15.40;;
28523;SDS011;15734;50.904;6.922;2023-06-10T04:10:53;22.25;;;15.20;;
28523;SDS011;15734;50.904;6.922;2023-06-10T04:13:18;21.85;;;14.27;;
28523;SDS011;15734;50.904;6.922;2023-06-10T04:15:44;22.73;;;14.20;;
28523;SDS011;15734;50.904;6.922;2023-06-10T04:18:10;22.17;;;14.70;;
28523;SDS011;15734;50.904;6.922;2023-06-10T04:20:35;23.35;;;14.25;;
28523;SDS011;15734;50.904;6.922;2023-06-10T04:23:01;26.60;;;14.90;;
28523;SDS011;15734;50.904;6.922;2023-06-10T04:25:26;23.83;;;14.77;;
28523;SDS011;15734;50.904;6.922;2023-06-10T04:27:53;27.10;;;15.18;;
28523;SDS011;15734;50.904;6.922;2023-06-10T04:30:19;22.05;;;14.82;;
28523;SDS011;15734;50.904;6.922;2023-06-10T04:32:45;20.92;;;14.63;;
28523;SDS011;15734;50.904;6.922;2023-06-10T04:35:12;21.20;;;14.35;;
28523;SDS011;15734;50.904;6.922;2023-06-10T04:37:39;18.50;;;13.57;;
28523;SDS011;15734;50.904;6.922;2023-06-10T04:40:04;20.65;;;14.73;;
28523;SDS011;15734;50.904;6.922;2023-06-10T04:42:31;18.40;;;14.43;;
28523;SDS011;15734;50.904;6.922;2023-06-10T04:44:56;27.05;;;14.32;;
28523;SDS011;15734;50.904;6.922;2023-06-10T04:47:22;20.77;;;14.50;;
28523;SDS011;15734;50.904;6.922;2023-06-10T04:49:48;20.70;;;15.00;;
28523;SDS011;15734;50.904;6.922;2023-06-10T04:52:13;19.17;;;14.35;;
28523;SDS011;15734;50.904;6.922;2023-06-10T04:54:39;19.15;;;13.75;;
28523;SDS011;15734;50.904;6.922;2023-06-10T04:57:05;20.63;;;15.75;;
28523;SDS011;15734;50.904;6.922;2023-06-10T04:59:32;24.88;;;15.10;;
28523;SDS011;15734;50.904;6.922;2023-06-10T05:01:58;22.88;;;13.45;;
28523;SDS011;15734;50.904;6.922;2023-06-10T05:04:24;22.60;;;15.25;;
28523;SDS011;15734;50.904;6.922;2023-06-10T05:06:49;24.60;;;14.52;;
28523;SDS011;15734;50.904;6.922;2023-06-10T05:09:15;25.23;;;15.07;;
28523;SDS011;15734;50.904;6.922;2023-06-10T05:11:40;23.02;;;14.43;;
28523;SDS011;15734;50.904;6.922;2023-06-10T05:14:06;21.45;;;14.43;;
28523;SDS011;15734;50.904;6.922;2023-06-10T05:16:31;20.83;;;14.75;;
28523;SDS011;15734;50.904;6.922;2023-06-10T05:18:57;20.98;;;13.80;;
28523;SDS011;15734;50.904;6.922;2023-06-10T05:21:22;19.95;;;14.35;;
28523;SDS011;15734;50.904;6.922;2023-06-10T05:23:48;19.00;;;13.95;;
28523;SDS011;15734;50.904;6.922;2023-06-10T05:26:14;19.73;;;14.00;;
28523;SDS011;15734;50.904;6.922;2023-06-10T05:28:40;19.15;;;13.25;;
28523;SDS011;15734;50.904;6.922;2023-06-10T05:31:06;22.63;;;12.48;;
28523;SDS011;15734;50.904;6.922;2023-06-10T05:33:32;18.30;;;12.48;;
28523;SDS011;15734;50.904;6.922;2023-06-10T05:35:57;18.92;;;12.25;;
28523;SDS011;15734;50.904;6.922;2023-06-10T05:38:23;14.98;;;9.90;;
28523;SDS011;15734;50.904;6.922;2023-06-10T05:40:48;13.55;;;9.80;;
28523;SDS011;15734;50.904;6.922;2023-06-10T05:43:14;16.60;;;10.02;;
28523;SDS011;15734;50.904;6.922;2023-06-10T05:45:41;13.52;;;9.18;;
28523;SDS011;15734;50.904;6.922;2023-06-10T05:48:07;14.93;;;9.55;;
28523;SDS011;15734;50.904;6.922;2023-06-10T05:50:33;15.70;;;10.18;;
28523;SDS011;15734;50.904;6.922;2023-06-10T05:53:03;12.10;;;8.90;;
28523;SDS011;15734;50.904;6.922;2023-06-10T05:55:29;12.15;;;8.52;;
28523;SDS011;15734;50.904;6.922;2023-06-10T05:57:58;14.80;;;8.43;;
28523;SDS011;15734;50.904;6.922;2023-06-10T06:00:25;11.10;;;8.27;;
28523;SDS011;15734;50.904;6.922;2023-06-10T06:02:51;17.83;;;8.48;;
28523;SDS011;15734;50.904;6.922;2023-06-10T06:05:17;13.90;;;8.63;;
28523;SDS011;15734;50.904;6.922;2023-06-10T06:07:43;10.40;;;7.70;;
28523;SDS011;15734;50.904;6.922;2023-06-10T06:10:08;15.30;;;8.50;;
28523;SDS011;15734;50.904;6.922;2023-06-10T06:12:34;9.95;;;7.97;;
28523;SDS011;15734;50.904;6.922;2023-06-10T06:14:59;13.32;;;8.20;;
28523;SDS011;15734;50.904;6.922;2023-06-10T06:17:25;16.40;;;7.85;;
28523;SDS011;15734;50.904;6.922;2023-06-10T06:19:50;11.52;;;8.18;;
28523;SDS011;15734;50.904;6.922;2023-06-10T06:22:16;12.35;;;7.80;;
28523;SDS011;15734;50.904;6.922;2023-06-10T06:24:46;12.13;;;8.40;;
28523;SDS011;15734;50.904;6.922;2023-06-10T06:27:12;11.30;;;7.13;;
28523;SDS011;15734;50.904;6.922;2023-06-10T06:29:37;10.00;;;7.32;;
28523;SDS011;15734;50.904;6.922;2023-06-10T06:32:03;12.88;;;8.45;;
28523;SDS011;15734;50.904;6.922;2023-06-10T06:34:29;11.63;;;7.68;;
28523;SDS011;15734;50.904;6.922;2023-06-10T06:36:54;10.40;;;7.13;;
28523;SDS011;15734;50.904;6.922;2023-06-10T06:39:20;9.65;;;7.05;;
28523;SDS011;15734;50.904;6.922;2023-06-10T06:41:45;9.00;;;6.63;;
28523;SDS011;15734;50.904;6.922;2023-06-10T06:44:11;12.63;;;7.28;;
28523;SDS011;15734;50.904;6.922;2023-06-10T06:46:36;9.25;;;6.82;;
28523;SDS011;15734;50.904;6.922;2023-06-10T06:49:02;9.43;;;7.07;;
28523;SDS011;15734;50.904;6.922;2023-06-10T06:51:27;12.75;;;6.82;;
28523;SDS011;15734;50.904;6.922;2023-06-10T06:53:53;11.63;;;6.43;;
28523;SDS011;15734;50.904;6.922;2023-06-10T06:56:21;10.90;;;6.90;;
28523;SDS011;15734;50.904;6.922;2023-06-10T06:58:47;16.33;;;6.40;;
28523;SDS011;15734;50.904;6.922;2023-06-10T07:01:12;11.38;;;6.03;;
28523;SDS011;15734;50.904;6.922;2023-06-10T07:03:38;8.27;;;6.32;;
28523;SDS011;15734;50.904;6.922;2023-06-10T07:06:03;11.38;;;7.13;;
28523;SDS011;15734;50.904;6.922;2023-06-10T07:08:29;8.70;;;6.53;;
28523;SDS011;15734;50.904;6.922;2023-06-10T07:10:55;10.48;;;6.85;;
28523;SDS011;15734;50.904;6.922;2023-06-10T07:13:20;13.45;;;7.32;;
28523;SDS011;15734;50.904;6.922;2023-06-10T07:15:46;13.05;;;7.38;;
28523;SDS011;15734;50.904;6.922;2023-06-10T07:18:11;11.80;;;7.18;;
28523;SDS011;15734;50.904;6.922;2023-06-10T07:20:37;9.48;;;6.80;;
28523;SDS011;15734;50.904;6.922;2023-06-10T07:23:03;12.15;;;7.43;;
28523;SDS011;15734;50.904;6.922;2023-06-10T07:25:28;14.50;;;6.82;;
28523;SDS011;15734;50.904;6.922;2023-06-10T07:27:54;17.63;;;7.30;;
28523;SDS011;15734;50.904;6.922;2023-06-10T07:30:19;8.35;;;6.78;;
28523;SDS011;15734;50.904;6.922;2023-06-10T07:32:45;8.93;;;6.30;;
28523;SDS011;15734;50.904;6.922;2023-06-10T07:35:10;9.82;;;6.57;;
28523;SDS011;15734;50.904;6.922;2023-06-10T07:37:37;9.93;;;7.07;;
28523;SDS011;15734;50.904;6.922;2023-06-10T07:40:02;9.30;;;6.70;;
28523;SDS011;15734;50.904;6.922;2023-06-10T07:42:28;8.95;;;6.40;;
28523;SDS011;15734;50.904;6.922;2023-06-10T07:44:54;11.98;;;6.63;;
28523;SDS011;15734;50.904;6.922;2023-06-10T07:47:19;8.18;;;6.25;;
28523;SDS011;15734;50.904;6.922;2023-06-10T07:49:45;9.48;;;7.30;;
28523;SDS011;15734;50.904;6.922;2023-06-10T07:52:10;13.70;;;7.22;;
28523;SDS011;15734;50.904;6.922;2023-06-10T07:54:36;11.43;;;6.90;;
28523;SDS011;15734;50.904;6.922;2023-06-10T07:57:01;15.80;;;7.60;;
28523;SDS011;15734;50.904;6.922;2023-06-10T07:59:27;14.23;;;6.50;;
28523;SDS011;15734;50.904;6.922;2023-06-10T08:01:53;12.68;;;7.70;;
28523;SDS011;15734;50.904;6.922;2023-06-10T08:04:18;13.00;;;6.45;;
28523;SDS011;15734;50.904;6.922;2023-06-10T08:06:44;9.20;;;6.72;;
28523;SDS011;15734;50.904;6.922;2023-06-10T08:09:09;9.27;;;6.88;;
28523;SDS011;15734;50.904;6.922;2023-06-10T08:11:35;9.10;;;6.75;;
28523;SDS011;15734;50.904;6.922;2023-06-10T08:14:01;11.13;;;6.88;;
28523;SDS011;15734;50.904;6.922;2023-06-10T08:16:27;11.57;;;6.82;;
28523;SDS011;15734;50.904;6.922;2023-06-10T08:18:52;10.73;;;6.82;;
28523;SDS011;15734;50.904;6.922;2023-06-10T08:21:18;10.65;;;7.38;;
28523;SDS011;15734;50.904;6.922;2023-06-10T08:23:44;12.27;;;7.07;;
28523;SDS011;15734;50.904;6.922;2023-06-10T08:26:10;11.60;;;7.60;;
28523;SDS011;15734;50.904;6.922;2023-06-10T08:28:35;9.75;;;7.32;;
28523;SDS011;15734;50.904;6.922;2023-06-10T08:31:01;8.57;;;6.53;;
28523;SDS011;15734;50.904;6.922;2023-06-10T08:33:26;21.10;;;8.88;;
28523;SDS011;15734;50.904;6.922;2023-06-10T08:35:52;22.25;;;8.70;;
28523;SDS011;15734;50.904;6.922;2023-06-10T08:38:17;18.13;;;8.38;;
28523;SDS011;15734;50.904;6.922;2023-06-10T08:40:43;12.43;;;7.18;;
28523;SDS011;15734;50.904;6.922;2023-06-10T08:43:22;15.82;;;7.93;;
28523;SDS011;15734;50.904;6.922;2023-06-10T08:45:55;19.10;;;8.30;;
28523;SDS011;15734;50.904;6.922;2023-06-10T08:48:25;13.52;;;8.77;;
28523;SDS011;15734;50.904;6.922;2023-06-10T08:50:55;19.13;;;8.63;;
28523;SDS011;15734;50.904;6.922;2023-06-10T08:53:22;12.50;;;7.65;;
28523;SDS011;15734;50.904;6.922;2023-06-10T08:55:51;15.10;;;8.20;;
28523;SDS011;15734;50.904;6.922;2023-06-10T08:58:17;13.57;;;6.60;;
28523;SDS011;15734;50.904;6.922;2023-06-10T09:00:43;9.93;;;6.80;;
28523;SDS011;15734;50.904;6.922;2023-06-10T09:03:09;13.32;;;7.05;;
28523;SDS011;15734;50.904;6.922;2023-06-10T09:05:36;15.40;;;7.07;;
28523;SDS011;15734;50.904;6.922;2023-06-10T09:08:02;9.85;;;7.78;;
28523;SDS011;15734;50.904;6.922;2023-06-10T09:10:30;13.52;;;7.10;;
28523;SDS011;15734;50.904;6.922;2023-06-10T09:12:57;13.02;;;7.25;;
28523;SDS011;15734;50.904;6.922;2023-06-10T09:15:22;11.20;;;6.80;;
28523;SDS011;15734;50.904;6.922;2023-06-10T09:17:48;8.73;;;6.95;;
28523;SDS011;15734;50.904;6.922;2023-06-10T09:20:14;9.40;;;6.35;;
28523;SDS011;15734;50.904;6.922;2023-06-10T09:22:41;12.00;;;6.93;;
28523;SDS011;15734;50.904;6.922;2023-06-10T09:25:08;16.83;;;7.22;;
28523;SDS011;15734;50.904;6.922;2023-06-10T09:27:49;11.70;;;7.35;;
28523;SDS011;15734;50.904;6.922;2023-06-10T09:32:58;8.25;;;6.57;;
28523;SDS011;15734;50.904;6.922;2023-06-10T09:35:29;8.85;;;7.05;;
28523;SDS011;15734;50.904;6.922;2023-06-10T09:37:59;9.57;;;6.95;;
28523;SDS011;15734;50.904;6.922;2023-06-10T09:40:25;11.70;;;6.65;;
28523;SDS011;15734;50.904;6.922;2023-06-10T09:42:53;8.25;;;6.40;;
28523;SDS011;15734;50.904;6.922;2023-06-10T09:45:20;10.52;;;6.45;;
28523;SDS011;15734;50.904;6.922;2023-06-10T09:47:46;10.88;;;7.03;;
28523;SDS011;15734;50.904;6.922;2023-06-10T09:50:12;9.55;;;7.38;;
28523;SDS011;15734;50.904;6.922;2023-06-10T09:52:38;9.95;;;7.20;;
28523;SDS011;15734;50.904;6.922;2023-06-10T09:55:04;10.38;;;7.45;;
28523;SDS011;15734;50.904;6.922;2023-06-10T09:57:33;9.30;;;6.78;;
28523;SDS011;15734;50.904;6.922;2023-06-10T10:00:04;10.32;;;6.60;;
28523;SDS011;15734;50.904;6.922;2023-06-10T10:02:30;9.52;;;6.93;;
28523;SDS011;15734;50.904;6.922;2023-06-10T10:05:02;24.40;;;9.43;;
28523;SDS011;15734;50.904;6.922;2023-06-10T10:07:29;10.57;;;6.88;;
28523;SDS011;15734;50.904;6.922;2023-06-10T10:09:55;9.45;;;6.90;;
28523;SDS011;15734;50.904;6.922;2023-06-10T10:12:20;10.70;;;6.50;;
28523;SDS011;15734;50.904;6.922;2023-06-10T10:14:47;9.43;;;6.65;;
28523;SDS011;15734;50.904;6.922;2023-06-10T10:17:14;13.98;;;6.63;;
28523;SDS011;15734;50.904;6.922;2023-06-10T10:19:46;14.18;;;7.20;;
28523;SDS011;15734;50.904;6.922;2023-06-10T10:22:26;7.57;;;5.90;;
28523;SDS011;15734;50.904;6.922;2023-06-10T10:24:59;12.02;;;6.88;;
28523;SDS011;15734;50.904;6.922;2023-06-10T10:27:28;9.88;;;6.50;;
28523;SDS011;15734;50.904;6.922;2023-06-10T10:29:58;12.55;;;6.55;;
28523;SDS011;15734;50.904;6.922;2023-06-10T10:32:29;8.82;;;6.35;;
28523;SDS011;15734;50.904;6.922;2023-06-10T10:35:05;13.55;;;7.45;;
28523;SDS011;15734;50.904;6.922;2023-06-10T10:37:42;9.50;;;6.65;;
28523;SDS011;15734;50.904;6.922;2023-06-10T10:40:08;11.25;;;7.07;;
28523;SDS011;15734;50.904;6.922;2023-06-10T10:42:35;12.18;;;7.13;;
28523;SDS011;15734;50.904;6.922;2023-06-10T10:45:01;15.25;;;7.20;;
28523;SDS011;15734;50.904;6.922;2023-06-10T10:47:27;10.43;;;6.47;;
28523;SDS011;15734;50.904;6.922;2023-06-10T10:49:55;9.05;;;6.95;;
28523;SDS011;15734;50.904;6.922;2023-06-10T10:52:24;9.35;;;6.55;;
28523;SDS011;15734;50.904;6.922;2023-06-10T10:54:50;11.93;;;7.20;;
28523;SDS011;15734;50.904;6.922;2023-06-10T10:57:22;8.77;;;6.40;;
28523;SDS011;15734;50.904;6.922;2023-06-10T11:02:17;9.65;;;6.43;;
28523;SDS011;15734;50.904;6.922;2023-06-10T11:04:44;10.68;;;6.18;;
28523;SDS011;15734;50.904;6.922;2023-06-10T11:07:12;10.20;;;6.80;;
28523;SDS011;15734;50.904;6.922;2023-06-10T11:09:40;12.45;;;6.43;;
28523;SDS011;15734;50.904;6.922;2023-06-10T11:15:20;12.13;;;6.38;;
28523;SDS011;15734;50.904;6.922;2023-06-10T11:23:10;7.85;;;6.13;;
28523;SDS011;15734;50.904;6.922;2023-06-10T11:25:49;7.07;;;6.00;;
28523;SDS011;15734;50.904;6.922;2023-06-10T11:28:18;10.32;;;6.45;;
28523;SDS011;15734;50.904;6.922;2023-06-10T11:30:44;9.38;;;6.22;;
28523;SDS011;15734;50.904;6.922;2023-06-10T11:33:14;11.77;;;6.20;;
28523;SDS011;15734;50.904;6.922;2023-06-10T11:35:41;7.10;;;5.82;;
28523;SDS011;15734;50.904;6.922;2023-06-10T11:38:08;7.38;;;5.45;;
28523;SDS011;15734;50.904;6.922;2023-06-10T11:40:34;7.88;;;5.68;;
28523;SDS011;15734;50.904;6.922;2023-06-10T11:43:00;12.48;;;5.93;;
28523;SDS011;15734;50.904;6.922;2023-06-10T11:45:27;9.07;;;5.97;;
28523;SDS011;15734;50.904;6.922;2023-06-10T11:47:56;6.95;;;5.93;;
28523;SDS011;15734;50.904;6.922;2023-06-10T11:50:33;7.95;;;6.45;;
28523;SDS011;15734;50.904;6.922;2023-06-10T11:52:59;6.57;;;5.90;;
28523;SDS011;15734;50.904;6.922;2023-06-10T11:55:25;8.68;;;6.15;;
28523;SDS011;15734;50.904;6.922;2023-06-10T11:58:12;8.77;;;6.68;;
28523;SDS011;15734;50.904;6.922;2023-06-10T12:03:13;13.88;;;6.10;;
28523;SDS011;15734;50.904;6.922;2023-06-10T12:05:39;6.55;;;5.00;;
28523;SDS011;15734;50.904;6.922;2023-06-10T12:08:11;8.13;;;5.75;;
28523;SDS011;15734;50.904;6.922;2023-06-10T12:10:43;8.32;;;5.55;;
28523;SDS011;15734;50.904;6.922;2023-06-10T12:13:09;5.90;;;5.30;;
28523;SDS011;15734;50.904;6.922;2023-06-10T12:15:35;6.63;;;5.32;;
28523;SDS011;15734;50.904;6.922;2023-06-10T12:18:01;8.27;;;5.43;;
28523;SDS011;15734;50.904;6.922;2023-06-10T12:20:28;12.38;;;6.05;;
28523;SDS011;15734;50.904;6.922;2023-06-10T12:22:54;6.45;;;5.40;;
28523;SDS011;15734;50.904;6.922;2023-06-10T12:25:29;7.70;;;5.45;;
28523;SDS011;15734;50.904;6.922;2023-06-10T12:27:56;9.05;;;5.97;;
28523;SDS011;15734;50.904;6.922;2023-06-10T12:30:23;9.23;;;5.75;;
28523;SDS011;15734;50.904;6.922;2023-06-10T12:32:51;8.88;;;6.43;;
28523;SDS011;15734;50.904;6.922;2023-06-10T12:35:24;8.60;;;6.18;;
28523;SDS011;15734;50.904;6.922;2023-06-10T12:38:01;8.65;;;6.30;;
28523;SDS011;15734;50.904;6.922;2023-06-10T12:40:30;10.68;;;5.53;;
28523;SDS011;15734;50.904;6.922;2023-06-10T12:43:02;8.25;;;5.28;;
28523;SDS011;15734;50.904;6.922;2023-06-10T12:45:31;9.65;;;5.30;;
28523;SDS011;15734;50.904;6.922;2023-06-10T12:50:41;10.52;;;5.18;;
28523;SDS011;15734;50.904;6.922;2023-06-10T12:53:07;7.50;;;4.90;;
28523;SDS011;15734;50.904;6.922;2023-06-10T12:55:33;6.25;;;5.35;;
28523;SDS011;15734;50.904;6.922;2023-06-10T12:57:58;6.88;;;5.30;;
28523;SDS011;15734;50.904;6.922;2023-06-10T13:00:25;7.13;;;4.47;;
28523;SDS011;15734;50.904;6.922;2023-06-10T13:02:54;13.18;;;5.35;;
28523;SDS011;15734;50.904;6.922;2023-06-10T13:05:19;8.25;;;5.05;;
28523;SDS011;15734;50.904;6.922;2023-06-10T13:07:45;8.15;;;5.05;;
28523;SDS011;15734;50.904;6.922;2023-06-10T13:10:12;5.55;;;4.68;;
28523;SDS011;15734;50.904;6.922;2023-06-10T13:12:39;7.95;;;4.68;;
28523;SDS011;15734;50.904;6.922;2023-06-10T13:15:04;7.10;;;4.70;;
28523;SDS011;15734;50.904;6.922;2023-06-10T13:17:32;8.05;;;4.95;;
28523;SDS011;15734;50.904;6.922;2023-06-10T13:19:59;9.27;;;5.28;;
28523;SDS011;15734;50.904;6.922;2023-06-10T13:22:25;7.22;;;5.38;;
28523;SDS011;15734;50.904;6.922;2023-06-10T13:24:51;6.63;;;4.30;;
28523;SDS011;15734;50.904;6.922;2023-06-10T13:27:17;13.00;;;4.78;;
28523;SDS011;15734;50.904;6.922;2023-06-10T13:29:43;7.22;;;4.97;;
28523;SDS011;15734;50.904;6.922;2023-06-10T13:32:08;6.47;;;4.57;;
28523;SDS011;15734;50.904;6.922;2023-06-10T13:34:35;5.13;;;4.13;;
28523;SDS011;15734;50.904;6.922;2023-06-10T13:37:01;7.63;;;4.53;;
28523;SDS011;15734;50.904;6.922;2023-06-10T13:39:28;7.47;;;4.28;;
28523;SDS011;15734;50.904;6.922;2023-06-10T13:41:54;9.73;;;4.95;;
28523;SDS011;15734;50.904;6.922;2023-06-10T13:44:20;6.43;;;4.22;;
28523;SDS011;15734;50.904;6.922;2023-06-10T13:46:45;12.45;;;5.68;;
28523;SDS011;15734;50.904;6.922;2023-06-10T13:49:11;13.88;;;5.30;;
28523;SDS011;15734;50.904;6.922;2023-06-10T13:51:37;7.75;;;4.60;;
28523;SDS011;15734;50.904;6.922;2023-06-10T13:54:02;8.95;;;4.82;;
28523;SDS011;15734;50.904;6.922;2023-06-10T13:56:28;5.50;;;4.40;;
28523;SDS011;15734;50.904;6.922;2023-06-10T13:58:53;6.80;;;4.68;;
28523;SDS011;15734;50.904;6.922;2023-06-10T14:01:19;6.15;;;4.80;;
28523;SDS011;15734;50.904;6.922;2023-06-10T14:03:45;6.82;;;4.50;;
28523;SDS011;15734;50.904;6.922;2023-06-10T14:06:10;6.55;;;5.35;;
28523;SDS011;15734;50.904;6.922;2023-06-10T14:08:38;8.23;;;4.53;;
28523;SDS011;15734;50.904;6.922;2023-06-10T14:11:03;5.85;;;4.78;;
28523;SDS011;15734;50.904;6.922;2023-06-10T14:13:29;7.18;;;4.50;;
28523;SDS011;15734;50.904;6.922;2023-06-10T14:15:54;7.70;;;5.22;;
28523;SDS011;15734;50.904;6.922;2023-06-10T14:18:20;4.97;;;4.28;;
28523;SDS011;15734;50.904;6.922;2023-06-10T14:20:45;8.00;;;4.40;;
28523;SDS011;15734;50.904;6.922;2023-06-10T14:23:11;9.27;;;4.85;;
28523;SDS011;15734;50.904;6.922;2023-06-10T14:25:37;13.48;;;4.95;;
28523;SDS011;15734;50.904;6.922;2023-06-10T14:28:02;5.68;;;4.80;;
28523;SDS011;15734;50.904;6.922;2023-06-10T14:30:28;4.57;;;3.97;;
28523;SDS011;15734;50.904;6.922;2023-06-10T14:32:53;7.85;;;4.93;;
28523;SDS011;15734;50.904;6.922;2023-06-10T14:35:19;7.93;;;5.15;;
28523;SDS011;15734;50.904;6.922;2023-06-10T14:37:46;9.07;;;5.30;;
28523;SDS011;15734;50.904;6.922;2023-06-10T14:40:11;7.78;;;4.80;;
28523;SDS011;15734;50.904;6.922;2023-06-10T14:42:37;8.68;;;4.43;;
28523;SDS011;15734;50.904;6.922;2023-06-10T14:45:03;5.28;;;4.38;;
28523;SDS011;15734;50.904;6.922;2023-06-10T14:47:30;8.80;;;4.30;;
28523;SDS011;15734;50.904;6.922;2023-06-10T14:49:55;5.22;;;4.72;;
28523;SDS011;15734;50.904;6.922;2023-06-10T14:52:21;7.15;;;4.38;;
28523;SDS011;15734;50.904;6.922;2023-06-10T14:54:46;6.13;;;4.30;;